KHIO

Portland-Hillsboro Airport

Portland, Oregon, USA
METAR KHIO 152253Z 33004KT 10SM CLR 14/08 A3027 RMK AO2 SLP249 T01390083
Observed Flight Rules
Nov-15 @ 22:53 UTC (22 minutes ago) Visual Flight Rules
Wind Visibility Clouds
330° at 4 knots 10 miles
  • Clear skies
Temperatures Readings
Current 14°C / 57°F
Dewpoint 8°C / 46°F
Humidity 67%
Altimeter 30.27" Hg
Pressure 1024.9 hPa
Elevation 68
METAR KHIO 152253Z 33004KT 10SM CLR 14/08 A3027 RMK AO2 SLP249 T01390083
Observed Flight Rules
Nov-15 @ 22:53 UTC
(22 minutes ago)
VFR
Wind Visibility
330° at 4 knots 10 miles
Clouds
  • Clear skies
Temperature Dewpoint
14°C / 57°F 8°C / 46°F
Humidity Altimeter Pressure
67% 30.27" Hg 1024.9 hPa